Autoridad de Aeronautica Civil de Panamá


taf




 

AERÓDROMOS

 

PRONOSTICO DE AERÓDROMO
TAF

AEROPUERTO INTL. DE TOCUMEN:


TAF MPTO 010500Z 0106/0212 30008KT 9999 FEW018 TEMPO 0106/0109 VRB02KT TEMPO 0109/0111 00000KT BECMG 0117/0119 17005KT PROB30 TEMPO 0119/0121 18008KT 8000 -SHRA SCT018 SCT090= TEMPO 0122/0124 03010KT
AEROPUERTO MARCOS A. GELABERT:


TAF AMD MPMG 050300Z 0500/0512 CNL=
AEROPUERTO ENRIQUE MALEK:


TAF AMD MPDA 050300Z 0500/0512 CNL=
AEROPUERTO PANAMA PACIFICO:


TAF AMD MPPA 050300Z 0500/0606 CNL=
AEROPUERTO SCARLETT MARTÍNEZ:


TAF AMD MPSM 050300Z 0500/0606 CNL=


Contador: 1928